Time;durP1;ratioP1;P1;durP2;ratioP2;P2;SDS_P1;SDS_P2;PMS_P1;PMS_P2;Temp;Humidity;BMP_temperature;BMP_pressure;BME280_temperature;BME280_humidity;BME280_pressure;Samples;Min_cycle;Max_cycle;Signal;HPM_P1;HPM_P2
2022/09/05 00:00:10;;;;;;;3.23;2.80;;;;;;;20.07;58.15;99183.13;7031874;28;20298;-80
2022/09/05 00:03:40;;;;;;;4.00;2.83;;;;;;;20.04;58.63;99178.97;7032655;28;20215;-80
2022/09/05 00:07:06;;;;;;;4.77;3.33;;;;;;;20.21;58.53;99189.84;7032243;28;20281;-79
2022/09/05 00:10:35;;;;;;;3.80;3.10;;;;;;;20.31;58.08;99179.00;7020210;28;20682;-79
2022/09/05 00:14:16;;;;;;;3.97;2.77;;;;;;;20.53;57.42;99174.31;7004626;28;20194;-79
2022/09/05 00:17:43;;;;;;;3.23;2.90;;;;;;;19.55;59.44;99166.34;7003375;28;20226;-80
2022/09/05 00:21:14;;;;;;;5.50;2.90;;;;;;;20.36;58.29;99177.19;7003884;28;20239;-79
2022/09/05 00:24:44;;;;;;;2.63;2.43;;;;;;;20.52;57.11;99178.16;7003389;28;20227;-79
2022/09/05 00:28:15;;;;;;;3.10;2.80;;;;;;;20.40;57.02;99172.81;7002722;28;20556;-80
2022/09/05 00:31:46;;;;;;;5.30;2.97;;;;;;;20.09;57.55;99183.69;7002935;28;20192;-79
2022/09/05 00:35:22;;;;;;;4.20;2.90;;;;;;;20.23;57.98;99180.31;7002916;28;20245;-79
2022/09/05 00:38:54;;;;;;;4.80;3.07;;;;;;;19.96;57.56;99124.69;7002397;28;20186;-80
2022/09/05 00:42:18;;;;;;;3.60;3.30;;;;;;;19.64;58.03;99126.50;7003081;28;20202;-80
2022/09/05 00:45:42;;;;;;;3.00;2.80;;;;;;;19.90;58.61;99163.19;7003200;28;20256;-80
2022/09/05 00:49:15;;;;;;;3.80;2.80;;;;;;;20.12;58.21;99177.72;7001961;28;20224;-80
2022/09/05 00:52:41;;;;;;;6.00;2.90;;;;;;;20.06;57.93;99175.97;7003497;28;20630;-79
2022/09/05 00:56:07;;;;;;;2.97;2.70;;;;;;;20.08;58.01;99185.63;7002934;28;20284;-79
2022/09/05 00:59:51;;;;;;;4.33;2.90;;;;;;;20.05;58.08;99177.06;7003125;28;20221;-80
2022/09/05 01:03:32;;;;;;;4.30;2.63;;;;;;;20.00;58.29;99155.09;7003669;28;20658;-79
2022/09/05 01:07:04;;;;;;;4.40;2.70;;;;;;;20.04;57.65;99167.22;7003353;28;20639;-79
2022/09/05 01:10:33;;;;;;;5.60;3.20;;;;;;;19.27;59.65;99162.94;7001598;28;20310;-79
2022/09/05 01:14:05;;;;;;;5.73;3.10;;;;;;;19.15;60.40;99179.41;7003248;28;20292;-79
2022/09/05 01:17:35;;;;;;;4.07;3.30;;;;;;;19.32;60.33;99171.19;7003687;28;20302;-80
2022/09/05 01:21:16;;;;;;;7.60;3.00;;;;;;;19.60;59.64;99184.72;7004703;28;20218;-79
2022/09/05 01:25:03;;;;;;;4.43;3.20;;;;;;;19.36;59.75;99172.34;7017112;28;20198;-80
2022/09/05 01:28:29;;;;;;;4.47;2.90;;;;;;;18.83;62.70;99172.06;6989026;28;20338;-80
2022/09/05 01:32:03;;;;;;;4.43;3.30;;;;;;;19.31;61.40;99178.59;7002176;28;20189;-80
2022/09/05 01:35:50;;;;;;;8.63;3.20;;;;;;;19.76;59.67;99184.66;7002723;28;20255;-79
2022/09/05 01:39:16;;;;;;;4.30;3.07;;;;;;;19.76;58.90;99170.97;6998583;28;20665;-79
2022/09/05 01:42:41;;;;;;;3.70;2.90;;;;;;;19.80;58.63;99169.38;7007486;28;20812;-79
2022/09/05 01:46:18;;;;;;;4.40;2.80;;;;;;;19.73;58.41;99160.53;7007531;28;20230;-80
2022/09/05 01:49:51;;;;;;;2.93;2.70;;;;;;;19.55;59.12;99168.22;7007093;28;20684;-80
2022/09/05 01:53:25;;;;;;;3.30;3.00;;;;;;;19.30;60.00;99166.00;7007241;28;20654;-80
2022/09/05 01:56:54;;;;;;;4.00;3.10;;;;;;;19.19;60.11;99157.84;7006681;28;20241;-79
2022/09/05 02:00:20;;;;;;;3.73;3.40;;;;;;;19.57;59.32;99157.88;7006433;28;20228;-79
2022/09/05 02:03:48;;;;;;;3.60;2.80;;;;;;;19.58;58.47;99126.69;7007187;28;20359;-80
2022/09/05 02:07:19;;;;;;;4.60;3.00;;;;;;;19.68;58.38;99148.69;7007113;28;20260;-80
2022/09/05 02:10:55;;;;;;;3.20;2.90;;;;;;;18.77;61.13;99157.50;7006259;28;20239;-79
2022/09/05 02:14:26;;;;;;;5.07;3.27;;;;;;;19.00;61.32;99156.47;7006696;28;20533;-79
2022/09/05 02:17:52;;;;;;;4.53;3.20;;;;;;;19.20;60.67;99154.03;7006384;28;20231;-79
2022/09/05 02:21:23;;;;;;;3.23;2.93;;;;;;;19.32;60.45;99154.78;7006750;28;20236;-79
2022/09/05 02:24:47;;;;;;;4.57;3.23;;;;;;;19.35;58.99;99119.56;7006658;28;20220;-80
2022/09/05 02:28:12;;;;;;;4.83;3.50;;;;;;;19.12;60.29;99171.72;7006045;28;20228;-80
2022/09/05 02:31:41;;;;;;;3.80;3.37;;;;;;;19.08;60.38;99159.63;7006660;28;20276;-80
2022/09/05 02:35:07;;;;;;;5.53;3.53;;;;;;;18.81;60.57;99163.28;7006172;28;20220;-79
2022/09/05 02:38:36;;;;;;;4.23;3.50;;;;;;;19.22;60.59;99150.00;7005870;28;20650;-79
2022/09/05 02:42:02;;;;;;;3.60;3.30;;;;;;;19.44;59.49;99147.28;7006395;28;20251;-80
2022/09/05 02:45:33;;;;;;;4.63;3.10;;;;;;;19.51;58.87;99135.09;7008428;28;20221;-79
2022/09/05 02:48:58;;;;;;;4.77;4.13;;;;;;;18.65;60.79;99129.44;7006467;28;20209;-79
2022/09/05 02:52:20;;;;;;;5.33;3.87;;;;;;;18.09;64.54;99132.25;7009323;28;20301;-80
2022/09/05 02:55:57;;;;;;;3.97;3.30;;;;;;;18.81;62.82;99144.16;7007999;28;20249;-80
2022/09/05 02:59:34;;;;;;;3.70;3.40;;;;;;;18.88;61.60;99126.50;7006996;28;20277;-79
2022/09/05 03:03:15;;;;;;;4.17;3.50;;;;;;;19.08;61.02;99131.44;7009407;28;20210;-80
2022/09/05 03:06:45;;;;;;;4.40;3.50;;;;;;;19.41;59.80;99132.22;7005913;28;20224;-80
2022/09/05 03:10:40;;;;;;;4.30;3.83;;;;;;;18.91;61.21;99144.31;7010278;28;20201;-80
2022/09/05 03:14:45;;;;;;;5.17;3.73;;;;;;;18.46;62.23;99151.78;7004284;28;20206;-79
2022/09/05 03:18:45;;;;;;;6.73;4.03;;;;;;;18.85;62.35;99148.88;7012500;28;20205;-80
2022/09/05 03:23:00;;;;;;;3.23;3.00;;;;;;;18.90;61.57;99146.22;6971814;28;20251;-80
2022/09/05 03:26:55;;;;;;;8.53;4.10;;;;;;;18.81;61.61;99155.09;6956722;28;20232;-80
2022/09/05 03:30:19;;;;;;;4.10;3.60;;;;;;;18.72;61.67;99149.22;7004585;28;20186;-80
2022/09/05 03:34:14;;;;;;;4.17;3.77;;;;;;;18.53;62.16;99128.72;7004950;28;20338;-80
2022/09/05 03:37:49;;;;;;;3.60;3.30;;;;;;;18.75;62.05;99145.97;7003947;28;20231;-80
2022/09/05 03:41:20;;;;;;;7.93;3.83;;;;;;;18.76;61.39;99130.44;7004747;28;20202;-80
2022/09/05 03:44:53;;;;;;;6.30;3.40;;;;;;;19.00;61.02;99145.56;7006920;28;20209;-80
2022/09/05 03:48:40;;;;;;;5.57;3.40;;;;;;;18.92;61.08;99143.25;7003930;28;20197;-79
2022/09/05 03:52:09;;;;;;;4.27;3.40;;;;;;;18.57;61.13;99140.78;7004502;28;20323;-80
2022/09/05 03:55:52;;;;;;;5.80;3.77;;;;;;;18.70;61.29;99153.28;7004180;28;20225;-80
2022/09/05 03:59:38;;;;;;;6.33;3.57;;;;;;;18.56;61.38;99149.19;7003567;28;20339;-80
2022/09/05 04:03:05;;;;;;;3.93;3.63;;;;;;;18.55;61.42;99156.59;7004205;28;20305;-80
2022/09/05 04:06:33;;;;;;;7.30;3.30;;;;;;;18.66;61.41;99157.56;7027943;28;20302;-80
2022/09/05 04:09:57;;;;;;;5.00;3.90;;;;;;;18.37;61.58;99139.59;7030696;28;20281;-80
2022/09/05 04:13:22;;;;;;;4.10;3.67;;;;;;;18.62;61.90;99167.34;7031830;28;20219;-80
2022/09/05 04:16:49;;;;;;;4.97;3.53;;;;;;;18.92;60.74;99149.53;7031082;28;20307;-80
2022/09/05 04:20:15;;;;;;;3.90;3.60;;;;;;;18.80;60.74;99158.91;7031849;28;20188;-80
2022/09/05 04:23:51;;;;;;;5.27;3.37;;;;;;;18.64;60.76;99116.84;7031715;28;20604;-81
2022/09/05 04:27:27;;;;;;;4.20;3.70;;;;;;;18.95;60.06;99149.03;7031693;28;20743;-80
2022/09/05 04:30:55;;;;;;;4.87;3.70;;;;;;;18.73;60.26;99148.16;7022399;28;20208;-80
2022/09/05 04:34:32;;;;;;;4.37;3.33;;;;;;;18.72;60.61;99142.91;7040729;28;20299;-81
2022/09/05 04:37:58;;;;;;;3.70;3.40;;;;;;;18.80;60.63;99167.91;7033293;28;20212;-79
2022/09/05 04:41:23;;;;;;;5.43;3.87;;;;;;;18.64;60.75;99159.75;7049733;28;20219;-79
2022/09/05 04:44:51;;;;;;;8.77;3.63;;;;;;;18.72;61.05;99171.06;7034401;28;20277;-79
2022/09/05 04:48:15;;;;;;;8.33;3.63;;;;;;;18.63;61.26;99153.44;7029881;28;20231;-79
2022/09/05 04:51:54;;;;;;;4.03;3.63;;;;;;;18.52;61.37;99167.19;7031733;28;20232;-80
2022/09/05 04:55:17;;;;;;;4.13;3.73;;;;;;;18.60;61.42;99150.38;7030023;28;20281;-79
2022/09/05 04:58:50;;;;;;;5.67;3.73;;;;;;;18.61;61.29;99169.25;7030395;28;20195;-81
2022/09/05 05:02:17;;;;;;;3.73;3.43;;;;;;;18.64;60.82;99162.47;7034316;28;20263;-80
2022/09/05 05:05:53;;;;;;;5.37;3.63;;;;;;;18.66;60.93;99174.81;7031672;28;20247;-80
2022/09/05 05:09:17;;;;;;;5.83;3.70;;;;;;;18.75;60.80;99180.69;7031217;28;20326;-81
2022/09/05 05:12:52;;;;;;;4.73;3.77;;;;;;;18.82;60.68;99140.34;7031634;28;20296;-80
2022/09/05 05:16:18;;;;;;;4.00;3.70;;;;;;;19.15;59.43;99167.63;7031244;28;20248;-81
2022/09/05 05:19:43;;;;;;;5.07;2.93;;;;;;;19.19;60.43;99183.31;7030072;28;20258;-81
2022/09/05 05:23:06;;;;;;;4.07;3.60;;;;;;;19.56;59.55;99186.28;7030825;28;20221;-81
2022/09/05 05:26:30;;;;;;;3.93;3.63;;;;;;;19.43;59.78;99186.66;7030405;28;20289;-80
2022/09/05 05:29:54;;;;;;;4.17;3.20;;;;;;;19.43;59.43;99192.13;7030351;28;20200;-82
2022/09/05 05:33:24;;;;;;;4.00;3.60;;;;;;;19.29;59.86;99177.19;7031419;28;20224;-81
2022/09/05 05:36:50;;;;;;;6.90;4.77;;;;;;;19.42;60.01;99199.53;7031220;28;20692;-81
2022/09/05 05:40:19;;;;;;;5.60;3.83;;;;;;;19.34;60.35;99196.41;7030727;28;20227;-81
2022/09/05 05:43:41;;;;;;;4.10;3.67;;;;;;;19.41;60.16;99197.84;7022219;28;20621;-81
2022/09/05 05:47:09;;;;;;;5.13;3.80;;;;;;;19.45;59.82;99174.41;7002649;28;20227;-82
2022/09/05 05:50:38;;;;;;;6.20;3.90;;;;;;;19.52;60.43;99194.19;7003481;28;20342;-82
2022/09/05 05:54:05;;;;;;;5.63;3.73;;;;;;;19.75;59.59;99204.06;7004602;28;20256;-82
2022/09/05 05:57:52;;;;;;;5.07;3.60;;;;;;;20.20;58.80;99172.63;7003859;28;20264;-83
2022/09/05 06:01:48;;;;;;;4.07;3.03;;;;;;;20.75;57.04;99197.78;7004219;28;20189;-82
2022/09/05 06:05:30;;;;;;;5.70;3.30;;;;;;;20.72;57.22;99194.75;6999386;28;20238;-83
2022/09/05 06:09:08;;;;;;;5.53;3.13;;;;;;;20.99;56.71;99201.06;7003941;28;20197;-82
2022/09/05 06:13:10;;;;;;;3.67;3.30;;;;;;;21.12;55.86;99190.47;7004289;28;20205;-83
2022/09/05 06:16:56;;;;;;;4.93;3.20;;;;;;;21.19;55.70;99202.84;7004655;28;20222;-83
2022/09/05 06:20:40;;;;;;;3.43;3.13;;;;;;;21.77;54.26;99199.94;7004517;28;20186;-81
2022/09/05 06:24:36;;;;;;;3.80;3.40;;;;;;;21.61;55.57;99208.34;7009234;28;20615;-81
2022/09/05 06:28:06;;;;;;;3.13;2.90;;;;;;;21.25;56.48;99217.44;7009065;28;20221;-82
2022/09/05 06:31:37;;;;;;;6.17;3.37;;;;;;;21.00;56.16;99195.31;7009213;28;20212;-81
2022/09/05 06:35:08;;;;;;;4.50;3.30;;;;;;;21.43;56.41;99215.06;7021141;28;20224;-83
2022/09/05 06:38:53;;;;;;;3.43;3.13;;;;;;;21.23;56.72;99206.72;7014473;28;20255;-83
2022/09/05 06:42:21;;;;;;;5.23;3.20;;;;;;;21.71;55.76;99213.91;7034851;28;20711;-82
2022/09/05 06:45:58;;;;;;;5.17;3.10;;;;;;;22.22;54.79;99224.00;7034987;28;20222;-83
2022/09/05 06:49:24;;;;;;;3.83;2.80;;;;;;;22.99;53.48;99217.31;7036574;28;20230;-81
2022/09/05 06:53:17;;;;;;;5.93;3.40;;;;;;;23.06;52.32;99189.53;7036851;28;20272;-83
2022/09/05 06:56:46;;;;;;;3.47;3.17;;;;;;;23.91;50.47;99227.94;7034625;28;20259;-81
2022/09/05 07:00:19;;;;;;;4.40;2.90;;;;;;;24.66;48.73;99216.56;7034056;28;20201;-80
2022/09/05 07:03:57;;;;;;;3.67;3.00;;;;;;;25.03;48.01;99211.31;7033614;28;20244;-80
2022/09/05 07:07:22;;;;;;;4.77;2.97;;;;;;;25.06;47.87;99197.75;7033492;28;20226;-82
2022/09/05 07:10:49;;;;;;;7.27;3.10;;;;;;;25.60;45.58;99214.13;7034941;28;20607;-82
2022/09/05 07:14:18;;;;;;;3.70;3.40;;;;;;;26.21;45.27;99221.44;7034568;28;20200;-81
2022/09/05 07:17:49;;;;;;;3.27;2.70;;;;;;;26.18;44.18;99219.25;7035065;28;20309;-80
2022/09/05 07:21:18;;;;;;;3.27;3.00;;;;;;;24.89;46.01;99221.38;7033948;28;20268;-80
2022/09/05 07:24:43;;;;;;;6.17;3.40;;;;;;;25.65;45.39;99223.16;7034376;28;20323;-80
2022/09/05 07:28:07;;;;;;;5.00;3.30;;;;;;;25.35;46.16;99220.72;7035917;28;20201;-80
2022/09/05 07:31:31;;;;;;;4.67;3.13;;;;;;;25.51;46.36;99213.94;7041528;28;20208;-81
2022/09/05 07:34:55;;;;;;;3.60;2.90;;;;;;;26.17;45.32;99216.78;7035530;28;20229;-82
2022/09/05 07:38:20;;;;;;;3.37;2.80;;;;;;;26.74;44.69;99219.34;7035298;28;20240;-81
2022/09/05 07:41:49;;;;;;;6.40;3.07;;;;;;;26.96;43.18;99205.72;7035968;28;20242;-82
2022/09/05 07:45:16;;;;;;;4.23;2.60;;;;;;;26.83;43.65;99210.03;7009150;28;20704;-81
2022/09/05 07:48:41;;;;;;;9.67;2.67;;;;;;;26.91;42.78;99216.84;7014663;28;20229;-81
2022/09/05 07:52:09;;;;;;;3.73;2.70;;;;;;;27.04;42.17;99160.72;7038394;28;20216;-81
2022/09/05 07:55:33;;;;;;;3.00;2.70;;;;;;;28.02;40.59;99211.81;7050070;28;20647;-79
2022/09/05 07:58:54;;;;;;;2.43;2.23;;;;;;;28.76;40.81;99205.75;7025933;28;20217;-81
2022/09/05 08:02:16;;;;;;;2.60;2.40;;;;;;;29.07;39.64;99197.56;7003882;28;20198;-80
2022/09/05 08:05:39;;;;;;;4.10;2.30;;;;;;;29.23;37.97;99194.06;7004057;28;20283;-84
2022/09/05 08:09:05;;;;;;;2.43;2.20;;;;;;;29.44;37.84;99183.25;7005753;28;20271;-82
2022/09/05 08:12:30;;;;;;;2.87;2.40;;;;;;;29.56;38.61;99184.34;7005688;28;20330;-83
2022/09/05 08:15:55;;;;;;;4.30;2.30;;;;;;;29.42;39.58;99166.06;7003659;28;20597;-80
2022/09/05 08:19:40;;;;;;;2.53;2.33;;;;;;;29.58;37.71;99184.81;7003064;28;20202;-81
2022/09/05 08:23:06;;;;;;;2.27;2.07;;;;;;;29.57;38.03;99176.78;7005459;28;20262;-80
2022/09/05 08:26:34;;;;;;;4.40;1.90;;;;;;;30.46;36.91;99178.09;7004261;28;20228;-79
2022/09/05 08:30:02;;;;;;;2.33;2.10;;;;;;;31.04;36.21;99186.81;7016287;28;20295;-79
2022/09/05 08:33:25;;;;;;;4.93;2.30;;;;;;;29.74;38.23;99147.13;7025266;28;20187;-79
2022/09/05 08:36:48;;;;;;;3.47;2.20;;;;;;;30.60;37.19;99168.44;7008120;28;20235;-79
2022/09/05 08:40:19;;;;;;;5.13;2.10;;;;;;;31.43;35.38;99167.13;7018549;28;20202;-79
2022/09/05 08:43:50;;;;;;;2.30;2.10;;;;;;;31.32;34.45;99185.34;7031133;28;20266;-79
2022/09/05 08:47:20;;;;;;;2.63;2.00;;;;;;;31.82;34.56;99186.34;7030919;28;20228;-79
2022/09/05 08:50:55;;;;;;;2.60;2.40;;;;;;;32.02;33.59;99180.84;7032119;28;20192;-80
2022/09/05 08:54:21;;;;;;;2.30;2.10;;;;;;;32.37;33.56;99181.50;7032704;28;20211;-80
2022/09/05 08:57:54;;;;;;;2.70;2.20;;;;;;;31.47;33.72;99160.53;7032096;28;20225;-79
2022/09/05 09:01:27;;;;;;;2.00;1.90;;;;;;;32.33;33.13;99174.94;7031963;28;20339;-80
2022/09/05 09:05:05;;;;;;;3.07;2.17;;;;;;;32.59;32.95;99168.03;7031848;28;20256;-79
2022/09/05 09:08:33;;;;;;;1.90;1.80;;;;;;;32.47;32.24;99173.53;7014185;28;20206;-78
2022/09/05 09:11:57;;;;;;;2.10;2.00;;;;;;;32.96;32.96;99167.09;7003135;28;20237;-79
2022/09/05 09:15:21;;;;;;;1.90;1.80;;;;;;;33.12;31.99;99162.50;7005852;28;20304;-78
2022/09/05 09:19:04;;;;;;;2.10;1.90;;;;;;;33.13;30.29;99135.38;7029137;28;20340;-81
2022/09/05 09:22:36;;;;;;;2.63;2.20;;;;;;;32.01;32.48;99089.91;7030015;28;20248;-79
2022/09/05 09:26:12;;;;;;;3.07;2.03;;;;;;;32.79;32.96;99153.25;7029500;28;20260;-80
2022/09/05 09:29:37;;;;;;;2.47;2.20;;;;;;;33.33;32.02;99151.31;7030026;28;20178;-80
2022/09/05 09:33:02;;;;;;;2.10;2.00;;;;;;;33.47;31.16;99147.03;7030827;28;20196;-80
2022/09/05 09:36:43;;;;;;;2.93;2.10;;;;;;;32.78;31.45;99153.63;7030367;28;20238;-79
2022/09/05 09:40:30;;;;;;;2.47;1.90;;;;;;;31.78;33.17;99154.72;7029758;28;20180;-79
2022/09/05 09:44:21;;;;;;;6.00;1.97;;;;;;;33.68;30.03;99146.94;7024543;28;20216;-80
2022/09/05 09:48:02;;;;;;;2.73;1.90;;;;;;;34.29;28.22;99148.63;7028214;28;20263;-79
2022/09/05 09:51:39;;;;;;;2.17;1.97;;;;;;;34.13;28.43;99140.09;7034772;28;20203;-81
2022/09/05 09:55:40;;;;;;;2.40;1.83;;;;;;;34.72;27.87;99141.19;7029813;28;20328;-80
2022/09/05 09:59:28;;;;;;;2.10;1.90;;;;;;;34.15;28.18;99134.97;7033278;28;20291;-80
2022/09/05 10:03:18;;;;;;;2.30;1.83;;;;;;;34.53;28.15;99124.19;7031635;28;20235;-78
2022/09/05 10:07:12;;;;;;;2.13;2.03;;;;;;;34.61;28.10;99130.84;7016536;28;20369;-78
2022/09/05 10:11:09;;;;;;;1.87;1.73;;;;;;;33.80;28.09;99131.03;7033199;28;20224;-78
2022/09/05 10:14:57;;;;;;;2.87;2.00;;;;;;;34.70;27.55;99125.88;7034870;28;20352;-79
2022/09/05 10:18:31;;;;;;;2.97;2.10;;;;;;;34.99;27.26;99131.19;7012794;28;20747;-79
2022/09/05 10:22:10;;;;;;;2.90;2.00;;;;;;;34.58;27.11;99123.13;7006138;28;20316;-78
2022/09/05 10:25:52;;;;;;;3.17;1.70;;;;;;;35.41;26.92;99138.81;7004971;28;20252;-79
2022/09/05 10:29:38;;;;;;;2.10;1.97;;;;;;;35.25;26.28;99095.91;7005202;28;20580;-80
2022/09/05 10:33:17;;;;;;;3.57;2.00;;;;;;;34.08;28.72;99131.94;7005293;28;20785;-78
2022/09/05 10:36:39;;;;;;;3.70;2.00;;;;;;;35.42;26.71;99125.63;7005586;28;20364;-78
2022/09/05 10:40:03;;;;;;;2.50;2.00;;;;;;;34.75;27.15;99122.88;7007959;28;20198;-78
2022/09/05 10:43:26;;;;;;;3.60;2.20;;;;;;;35.27;26.90;99106.78;7024540;28;20228;-78
2022/09/05 10:46:56;;;;;;;1.93;1.80;;;;;;;35.33;26.55;99102.53;7005840;28;20225;-79
2022/09/05 10:50:28;;;;;;;2.47;2.17;;;;;;;35.48;25.72;99096.13;7004190;28;20247;-78
2022/09/05 10:53:54;;;;;;;2.27;2.00;;;;;;;35.26;25.83;99091.13;7004717;28;20198;-78
2022/09/05 10:57:30;;;;;;;3.77;1.90;;;;;;;35.57;24.77;99083.53;7005003;28;20737;-79
2022/09/05 11:01:00;;;;;;;2.10;2.00;;;;;;;35.03;25.21;99070.44;7005887;28;20275;-78
2022/09/05 11:04:32;;;;;;;1.90;1.80;;;;;;;35.01;24.65;99076.38;7006336;28;20233;-78
2022/09/05 11:08:01;;;;;;;2.40;1.90;;;;;;;34.04;24.16;99075.03;7004903;28;20259;-78
2022/09/05 11:11:24;;;;;;;1.70;1.60;;;;;;;35.03;24.26;99071.22;7035572;28;20211;-78
2022/09/05 11:14:51;;;;;;;2.97;2.03;;;;;;;34.67;25.40;99076.97;7034927;28;20225;-78
2022/09/05 11:18:18;;;;;;;3.73;1.83;;;;;;;33.66;26.58;99059.78;7033863;28;20284;-77
2022/09/05 11:21:56;;;;;;;2.23;1.93;;;;;;;33.87;25.93;99071.66;7032877;28;20273;-77
2022/09/05 11:25:22;;;;;;;1.70;1.60;;;;;;;35.21;24.04;99072.56;7031936;28;20237;-78
2022/09/05 11:28:51;;;;;;;2.07;1.90;;;;;;;35.17;23.36;99066.03;7032509;28;20282;-78
2022/09/05 11:32:37;;;;;;;2.10;1.90;;;;;;;35.46;23.40;99065.63;7032859;28;20201;-79
2022/09/05 11:36:00;;;;;;;1.80;1.70;;;;;;;35.26;22.72;99061.06;7015598;28;20224;-79
2022/09/05 11:39:48;;;;;;;2.73;2.20;;;;;;;35.27;22.64;99023.47;7034025;28;20241;-79
2022/09/05 11:43:39;;;;;;;3.20;2.00;;;;;;;35.62;22.90;99055.22;7037851;28;20221;-79
2022/09/05 11:47:25;;;;;;;2.53;1.90;;;;;;;35.10;22.78;99051.81;7030569;28;20308;-78
2022/09/05 11:51:18;;;;;;;2.43;1.80;;;;;;;36.21;21.93;99035.41;7032416;28;20212;-78
2022/09/05 11:55:07;;;;;;;1.87;1.73;;;;;;;36.02;20.77;99047.38;7036236;28;20263;-79
2022/09/05 11:58:47;;;;;;;1.90;1.80;;;;;;;34.64;22.46;99065.66;7032276;28;20194;-79
2022/09/05 12:02:25;;;;;;;2.30;1.70;;;;;;;35.02;22.10;99055.59;7035212;28;20215;-79
2022/09/05 12:06:04;;;;;;;3.67;1.80;;;;;;;35.62;21.60;99058.03;7031632;28;20621;-78
2022/09/05 12:09:37;;;;;;;1.87;1.77;;;;;;;33.65;23.16;99050.53;7031883;28;20200;-79
2022/09/05 12:13:30;;;;;;;2.30;2.10;;;;;;;34.43;22.46;99043.47;7036746;28;20257;-78
2022/09/05 12:16:56;;;;;;;3.10;2.00;;;;;;;34.18;23.49;99033.47;7019560;28;20713;-80
2022/09/05 12:20:22;;;;;;;2.20;2.00;;;;;;;34.50;22.90;99032.47;7030932;28;20193;-79
2022/09/05 12:23:50;;;;;;;1.70;1.60;;;;;;;35.34;21.15;99023.63;7031294;28;20260;-79
2022/09/05 12:27:14;;;;;;;1.80;1.70;;;;;;;35.18;20.21;99031.19;7020882;28;20224;-79
2022/09/05 12:30:38;;;;;;;2.90;1.60;;;;;;;35.56;20.33;99028.59;7014835;28;20673;-79
2022/09/05 12:34:01;;;;;;;1.80;1.70;;;;;;;35.16;20.58;99025.16;7009841;28;20209;-79
2022/09/05 12:37:29;;;;;;;1.80;1.70;;;;;;;35.59;19.86;99013.84;7031356;28;20217;-78
2022/09/05 12:40:56;;;;;;;1.93;1.73;;;;;;;34.89;21.14;99017.59;7030556;28;20197;-78
2022/09/05 12:44:43;;;;;;;1.80;1.70;;;;;;;34.74;20.34;98998.75;7037989;28;20245;-78
2022/09/05 12:48:10;;;;;;;1.70;1.60;;;;;;;35.06;20.31;99014.47;7027548;28;20190;-78
2022/09/05 12:51:35;;;;;;;2.37;2.13;;;;;;;35.00;19.83;99001.88;7005441;28;20181;-78
2022/09/05 12:55:00;;;;;;;2.10;1.60;;;;;;;35.67;20.27;99009.22;7003706;28;20229;-79
2022/09/05 12:58:24;;;;;;;1.70;1.60;;;;;;;35.91;19.93;98998.59;7001442;28;20293;-78
2022/09/05 13:01:46;;;;;;;3.70;1.93;;;;;;;35.07;20.22;98996.47;7003653;28;20201;-80
2022/09/05 13:05:11;;;;;;;1.70;1.60;;;;;;;35.21;20.21;98982.81;7007522;28;20305;-79
2022/09/05 13:08:42;;;;;;;3.53;1.87;;;;;;;35.86;19.94;98990.47;7031406;28;20297;-80
2022/09/05 13:12:08;;;;;;;2.00;1.80;;;;;;;36.14;19.86;98974.22;7031031;28;20201;-81
2022/09/05 13:15:34;;;;;;;1.87;1.77;;;;;;;36.24;19.81;98981.28;7030844;28;20312;-79
2022/09/05 13:19:06;;;;;;;2.53;1.80;;;;;;;36.36;19.42;98969.94;7023674;28;20201;-79
2022/09/05 13:22:28;;;;;;;2.10;1.90;;;;;;;35.51;21.09;98981.19;7024530;28;20189;-79
2022/09/05 13:25:57;;;;;;;1.77;1.67;;;;;;;34.69;21.95;98973.78;7014109;28;20226;-79
2022/09/05 13:29:20;;;;;;;2.03;1.93;;;;;;;35.65;21.17;98963.84;7002051;28;20773;-79
2022/09/05 13:32:44;;;;;;;1.67;1.57;;;;;;;35.93;21.74;98965.38;7002473;28;20305;-79
2022/09/05 13:36:09;;;;;;;2.23;1.80;;;;;;;35.82;21.48;98950.28;7003408;28;20221;-79
2022/09/05 13:39:43;;;;;;;2.83;2.00;;;;;;;35.84;21.60;98942.28;7003848;28;20198;-80
2022/09/05 13:43:09;;;;;;;3.30;1.80;;;;;;;36.10;21.06;98917.19;7031085;28;20185;-79
2022/09/05 13:46:38;;;;;;;2.10;1.90;;;;;;;36.35;21.59;98943.81;7031190;28;20229;-80
2022/09/05 13:50:12;;;;;;;1.53;1.43;;;;;;;35.05;22.12;98953.13;7030257;28;20694;-79
2022/09/05 13:53:36;;;;;;;2.40;1.80;;;;;;;35.14;22.31;98951.78;7030721;28;20227;-79
2022/09/05 13:57:16;;;;;;;2.10;2.00;;;;;;;35.42;21.82;98948.91;7030329;28;20348;-79
2022/09/05 14:01:11;;;;;;;2.83;1.90;;;;;;;36.00;21.27;98950.66;7029758;28;20209;-79
2022/09/05 14:05:01;;;;;;;2.23;2.10;;;;;;;36.14;21.03;98939.75;7030022;28;20208;-79
2022/09/05 14:08:36;;;;;;;2.90;1.73;;;;;;;35.84;21.48;98927.47;7024287;28;20209;-79
2022/09/05 14:12:04;;;;;;;3.60;2.03;;;;;;;35.84;21.00;98935.88;7003031;28;20676;-79
2022/09/05 14:15:35;;;;;;;2.07;1.70;;;;;;;35.26;22.33;98894.81;7002752;28;20605;-79
2022/09/05 14:22:42;;;;;;;3.73;2.00;;;;;;;34.82;22.38;98922.13;7001684;28;20272;-79
2022/09/05 14:26:06;;;;;;;2.27;1.80;;;;;;;34.23;22.96;98932.44;7000788;28;20261;-79
2022/09/05 14:29:32;;;;;;;2.27;2.07;;;;;;;34.43;23.30;98923.03;7001554;28;20197;-79
2022/09/05 14:33:07;;;;;;;5.03;1.97;;;;;;;34.60;22.45;98917.09;7002868;28;20190;-79
2022/09/05 14:36:36;;;;;;;3.63;2.00;;;;;;;33.51;23.77;98912.25;7004559;28;20252;-79
2022/09/05 14:40:35;;;;;;;2.30;2.10;;;;;;;34.02;23.50;98919.81;7005918;28;20249;-80
2022/09/05 14:44:42;;;;;;;3.63;2.30;;;;;;;34.12;22.75;98908.94;7019289;28;20232;-79
2022/09/05 14:48:35;;;;;;;3.60;2.00;;;;;;;34.26;23.14;98902.97;7035229;28;20237;-80
2022/09/05 14:51:59;;;;;;;2.13;1.93;;;;;;;34.65;23.07;98900.03;7021603;28;20217;-79
2022/09/05 14:55:21;;;;;;;2.00;1.90;;;;;;;34.82;22.93;98904.50;7006810;28;20240;-78
2022/09/05 14:58:43;;;;;;;2.03;1.90;;;;;;;34.51;22.48;98902.47;7022012;28;20579;-79
2022/09/05 15:02:17;;;;;;;2.30;1.87;;;;;;;35.10;22.53;98896.81;7028216;28;20273;-79
2022/09/05 15:05:40;;;;;;;2.30;2.10;;;;;;;35.21;21.96;98900.69;7008519;28;20229;-79
2022/09/05 15:09:05;;;;;;;3.13;2.20;;;;;;;33.91;23.76;98901.91;7006409;28;20205;-78
2022/09/05 15:12:28;;;;;;;2.10;2.00;;;;;;;34.30;23.12;98901.88;7009412;28;20317;-79
2022/09/05 15:15:54;;;;;;;2.00;1.90;;;;;;;33.98;23.38;98888.13;7009698;28;20309;-79
2022/09/05 15:19:48;;;;;;;3.13;1.83;;;;;;;34.81;22.73;98884.09;7005508;28;20280;-79
2022/09/05 15:23:15;;;;;;;2.00;1.80;;;;;;;35.02;23.15;98884.59;7006042;28;20214;-79
2022/09/05 15:26:47;;;;;;;2.23;2.00;;;;;;;34.76;22.95;98875.94;7006246;28;20233;-79
2022/09/05 15:30:16;;;;;;;2.17;2.07;;;;;;;34.14;23.26;98878.59;7007885;28;20646;-79
2022/09/05 15:33:39;;;;;;;2.63;1.90;;;;;;;34.17;23.38;98882.66;7016861;28;20341;-79
2022/09/05 15:37:01;;;;;;;2.20;2.00;;;;;;;34.69;22.96;98883.31;7010166;28;20233;-79
2022/09/05 15:40:22;;;;;;;2.07;1.83;;;;;;;33.52;23.62;98883.09;7013404;28;20208;-79
2022/09/05 15:43:55;;;;;;;2.07;1.97;;;;;;;34.05;22.80;98869.53;7031704;28;20234;-79
2022/09/05 15:47:23;;;;;;;2.30;2.10;;;;;;;33.89;24.13;98865.88;7033731;28;20230;-79
2022/09/05 15:50:48;;;;;;;2.20;2.00;;;;;;;34.25;23.80;98879.69;7030144;28;20201;-79
2022/09/05 15:54:22;;;;;;;2.50;2.30;;;;;;;34.15;23.17;98843.84;7031370;28;20563;-79
2022/09/05 15:57:48;;;;;;;2.07;1.90;;;;;;;34.53;23.12;98863.69;7032753;28;20249;-79
2022/09/05 16:01:14;;;;;;;2.10;1.90;;;;;;;34.74;23.30;98860.63;7033530;28;20281;-79
2022/09/05 16:04:36;;;;;;;2.13;1.93;;;;;;;34.57;23.09;98852.59;7034422;28;20216;-79
2022/09/05 16:08:01;;;;;;;3.07;2.13;;;;;;;34.24;22.82;98866.06;7026810;28;20198;-79
2022/09/05 16:11:24;;;;;;;4.90;2.10;;;;;;;34.54;23.25;98867.31;7034124;28;20204;-79
2022/09/05 16:14:50;;;;;;;3.03;2.23;;;;;;;34.55;22.97;98854.94;7034140;28;20211;-79
2022/09/05 16:18:15;;;;;;;2.20;2.00;;;;;;;34.42;23.57;98862.59;7033642;28;20228;-79
2022/09/05 16:21:37;;;;;;;2.93;2.03;;;;;;;34.11;23.72;98840.13;7033641;28;20234;-79
2022/09/05 16:25:04;;;;;;;2.27;1.90;;;;;;;33.92;24.80;98859.59;7003952;28;20232;-79
2022/09/05 16:28:28;;;;;;;2.43;1.97;;;;;;;33.84;25.08;98849.34;7004217;28;20208;-78
2022/09/05 16:32:05;;;;;;;3.40;2.00;;;;;;;33.64;26.54;98855.09;7003488;28;20309;-78
2022/09/05 16:35:30;;;;;;;2.37;2.07;;;;;;;33.56;26.89;98861.66;7003419;28;20736;-78
2022/09/05 16:38:57;;;;;;;2.40;2.20;;;;;;;33.39;27.36;98853.53;7003478;28;20197;-80
2022/09/05 16:42:21;;;;;;;2.20;2.00;;;;;;;33.23;27.77;98849.81;7021912;28;20207;-77